sensor_id;sensor_type;location;lat;lon;timestamp;temperature;humidity
5834;DHT22;2943;48.012;10.968;2023-04-30T00:00:07;10.30;99.90
5834;DHT22;2943;48.012;10.968;2023-04-30T00:02:35;10.30;99.90
5834;DHT22;2943;48.012;10.968;2023-04-30T00:05:02;10.30;99.90
5834;DHT22;2943;48.012;10.968;2023-04-30T00:07:28;10.30;99.90
5834;DHT22;2943;48.012;10.968;2023-04-30T00:09:57;10.30;99.90
5834;DHT22;2943;48.012;10.968;2023-04-30T00:12:24;10.30;99.90
5834;DHT22;2943;48.012;10.968;2023-04-30T00:14:51;10.40;99.90
5834;DHT22;2943;48.012;10.968;2023-04-30T00:17:19;10.40;99.90
5834;DHT22;2943;48.012;10.968;2023-04-30T00:19:46;10.40;99.90
5834;DHT22;2943;48.012;10.968;2023-04-30T00:22:13;10.40;99.90
5834;DHT22;2943;48.012;10.968;2023-04-30T00:24:39;10.50;99.90
5834;DHT22;2943;48.012;10.968;2023-04-30T00:27:07;10.40;99.90
5834;DHT22;2943;48.012;10.968;2023-04-30T00:29:34;10.40;99.90
5834;DHT22;2943;48.012;10.968;2023-04-30T00:32:02;10.40;99.90
5834;DHT22;2943;48.012;10.968;2023-04-30T00:34:29;10.40;99.90
5834;DHT22;2943;48.012;10.968;2023-04-30T00:36:55;10.40;99.90
5834;DHT22;2943;48.012;10.968;2023-04-30T00:39:22;10.50;99.90
5834;DHT22;2943;48.012;10.968;2023-04-30T00:41:49;10.40;99.90
5834;DHT22;2943;48.012;10.968;2023-04-30T00:44:17;10.40;99.90
5834;DHT22;2943;48.012;10.968;2023-04-30T00:46:44;10.40;99.90
5834;DHT22;2943;48.012;10.968;2023-04-30T00:49:10;10.40;99.90
5834;DHT22;2943;48.012;10.968;2023-04-30T00:51:39;10.30;99.90
5834;DHT22;2943;48.012;10.968;2023-04-30T00:54:07;10.30;99.90
5834;DHT22;2943;48.012;10.968;2023-04-30T00:56:34;10.20;99.90
5834;DHT22;2943;48.012;10.968;2023-04-30T00:59:01;10.20;99.90
5834;DHT22;2943;48.012;10.968;2023-04-30T01:01:30;10.20;99.90
5834;DHT22;2943;48.012;10.968;2023-04-30T01:03:57;10.20;99.90
5834;DHT22;2943;48.012;10.968;2023-04-30T01:06:26;10.30;99.90
5834;DHT22;2943;48.012;10.968;2023-04-30T01:08:53;10.20;99.90
5834;DHT22;2943;48.012;10.968;2023-04-30T01:11:27;10.20;99.90
5834;DHT22;2943;48.012;10.968;2023-04-30T01:14:03;10.30;99.90
5834;DHT22;2943;48.012;10.968;2023-04-30T01:16:38;10.30;99.90
5834;DHT22;2943;48.012;10.968;2023-04-30T01:19:09;10.30;99.90
5834;DHT22;2943;48.012;10.968;2023-04-30T01:21:46;10.40;99.90
5834;DHT22;2943;48.012;10.968;2023-04-30T01:24:48;10.40;99.90
5834;DHT22;2943;48.012;10.968;2023-04-30T01:27:27;10.40;99.90
5834;DHT22;2943;48.012;10.968;2023-04-30T01:29:58;10.30;99.90
5834;DHT22;2943;48.012;10.968;2023-04-30T01:32:27;10.30;99.90
5834;DHT22;2943;48.012;10.968;2023-04-30T01:34:53;10.30;99.90
5834;DHT22;2943;48.012;10.968;2023-04-30T01:37:27;10.30;99.90
5834;DHT22;2943;48.012;10.968;2023-04-30T01:40:07;10.30;99.90
5834;DHT22;2943;48.012;10.968;2023-04-30T01:42:44;10.30;99.90
5834;DHT22;2943;48.012;10.968;2023-04-30T01:45:22;10.30;99.90
5834;DHT22;2943;48.012;10.968;2023-04-30T01:48:00;10.30;99.90
5834;DHT22;2943;48.012;10.968;2023-04-30T01:50:37;10.30;99.90
5834;DHT22;2943;48.012;10.968;2023-04-30T01:53:06;10.20;99.90
5834;DHT22;2943;48.012;10.968;2023-04-30T01:55:36;10.20;99.90
5834;DHT22;2943;48.012;10.968;2023-04-30T01:58:05;10.20;99.90
5834;DHT22;2943;48.012;10.968;2023-04-30T02:00:34;10.20;99.90
5834;DHT22;2943;48.012;10.968;2023-04-30T02:03:01;10.20;99.90
5834;DHT22;2943;48.012;10.968;2023-04-30T02:05:27;10.30;99.90
5834;DHT22;2943;48.012;10.968;2023-04-30T02:07:54;10.20;99.90
5834;DHT22;2943;48.012;10.968;2023-04-30T02:10:22;10.20;99.90
5834;DHT22;2943;48.012;10.968;2023-04-30T02:12:49;10.20;99.90
5834;DHT22;2943;48.012;10.968;2023-04-30T02:15:16;10.20;99.90
5834;DHT22;2943;48.012;10.968;2023-04-30T02:17:44;10.10;99.90
5834;DHT22;2943;48.012;10.968;2023-04-30T02:20:11;10.10;99.90
5834;DHT22;2943;48.012;10.968;2023-04-30T02:22:38;10.10;99.90
5834;DHT22;2943;48.012;10.968;2023-04-30T02:25:05;10.10;99.90
5834;DHT22;2943;48.012;10.968;2023-04-30T02:27:32;10.10;99.90
5834;DHT22;2943;48.012;10.968;2023-04-30T02:29:59;10.10;99.90
5834;DHT22;2943;48.012;10.968;2023-04-30T02:32:27;10.20;99.90
5834;DHT22;2943;48.012;10.968;2023-04-30T02:34:55;10.10;99.90
5834;DHT22;2943;48.012;10.968;2023-04-30T02:37:22;10.10;99.90
5834;DHT22;2943;48.012;10.968;2023-04-30T02:39:50;10.10;99.90
5834;DHT22;2943;48.012;10.968;2023-04-30T02:42:17;10.00;99.90
5834;DHT22;2943;48.012;10.968;2023-04-30T02:44:43;10.00;99.90
5834;DHT22;2943;48.012;10.968;2023-04-30T02:47:10;9.90;99.90
5834;DHT22;2943;48.012;10.968;2023-04-30T02:49:37;9.90;99.90
5834;DHT22;2943;48.012;10.968;2023-04-30T02:52:06;9.80;99.90
5834;DHT22;2943;48.012;10.968;2023-04-30T02:54:34;9.70;99.90
5834;DHT22;2943;48.012;10.968;2023-04-30T02:57:01;9.70;99.90
5834;DHT22;2943;48.012;10.968;2023-04-30T02:59:28;9.70;99.90
5834;DHT22;2943;48.012;10.968;2023-04-30T03:01:54;9.70;99.90
5834;DHT22;2943;48.012;10.968;2023-04-30T03:04:21;9.70;99.90
5834;DHT22;2943;48.012;10.968;2023-04-30T03:06:48;9.70;99.90
5834;DHT22;2943;48.012;10.968;2023-04-30T03:09:16;9.80;99.90
5834;DHT22;2943;48.012;10.968;2023-04-30T03:11:43;9.80;99.90
5834;DHT22;2943;48.012;10.968;2023-04-30T03:14:10;9.80;99.90
5834;DHT22;2943;48.012;10.968;2023-04-30T03:16:37;9.80;99.90
5834;DHT22;2943;48.012;10.968;2023-04-30T03:19:03;9.80;99.90
5834;DHT22;2943;48.012;10.968;2023-04-30T03:21:30;9.80;99.90
5834;DHT22;2943;48.012;10.968;2023-04-30T03:23:57;9.80;99.90
5834;DHT22;2943;48.012;10.968;2023-04-30T03:26:25;9.80;99.90
5834;DHT22;2943;48.012;10.968;2023-04-30T03:28:52;9.80;99.90
5834;DHT22;2943;48.012;10.968;2023-04-30T03:31:20;9.90;99.90
5834;DHT22;2943;48.012;10.968;2023-04-30T03:33:46;9.90;99.90
5834;DHT22;2943;48.012;10.968;2023-04-30T03:36:13;9.90;99.90
5834;DHT22;2943;48.012;10.968;2023-04-30T03:38:40;9.80;99.90
5834;DHT22;2943;48.012;10.968;2023-04-30T03:41:07;9.80;99.90
5834;DHT22;2943;48.012;10.968;2023-04-30T03:43:35;9.80;99.90
5834;DHT22;2943;48.012;10.968;2023-04-30T03:46:02;9.80;99.90
5834;DHT22;2943;48.012;10.968;2023-04-30T03:48:29;9.80;99.90
5834;DHT22;2943;48.012;10.968;2023-04-30T03:50:56;9.70;99.90
5834;DHT22;2943;48.012;10.968;2023-04-30T03:53:23;9.70;99.90
5834;DHT22;2943;48.012;10.968;2023-04-30T03:55:51;9.70;99.90
5834;DHT22;2943;48.012;10.968;2023-04-30T03:58:18;9.70;99.90
5834;DHT22;2943;48.012;10.968;2023-04-30T04:00:47;9.70;99.90
5834;DHT22;2943;48.012;10.968;2023-04-30T04:03:14;9.70;99.90
5834;DHT22;2943;48.012;10.968;2023-04-30T04:05:41;9.70;99.90
5834;DHT22;2943;48.012;10.968;2023-04-30T04:08:09;9.70;99.90
5834;DHT22;2943;48.012;10.968;2023-04-30T04:10:39;9.70;99.90
5834;DHT22;2943;48.012;10.968;2023-04-30T04:13:06;9.60;99.90
5834;DHT22;2943;48.012;10.968;2023-04-30T04:15:33;9.60;99.90
5834;DHT22;2943;48.012;10.968;2023-04-30T04:18:01;9.60;99.90
5834;DHT22;2943;48.012;10.968;2023-04-30T04:20:28;9.60;99.90
5834;DHT22;2943;48.012;10.968;2023-04-30T04:22:55;9.60;99.90
5834;DHT22;2943;48.012;10.968;2023-04-30T04:25:22;9.50;99.90
5834;DHT22;2943;48.012;10.968;2023-04-30T04:27:50;9.50;99.90
5834;DHT22;2943;48.012;10.968;2023-04-30T04:30:17;9.60;99.90
5834;DHT22;2943;48.012;10.968;2023-04-30T04:32:44;9.50;99.90
5834;DHT22;2943;48.012;10.968;2023-04-30T04:35:15;9.50;99.90
5834;DHT22;2943;48.012;10.968;2023-04-30T04:37:42;9.50;99.90
5834;DHT22;2943;48.012;10.968;2023-04-30T04:40:09;9.50;99.90
5834;DHT22;2943;48.012;10.968;2023-04-30T04:42:38;9.50;99.90
5834;DHT22;2943;48.012;10.968;2023-04-30T04:45:05;9.50;99.90
5834;DHT22;2943;48.012;10.968;2023-04-30T04:47:33;9.50;99.90
5834;DHT22;2943;48.012;10.968;2023-04-30T04:49:59;9.50;99.90
5834;DHT22;2943;48.012;10.968;2023-04-30T04:52:28;9.50;99.90
5834;DHT22;2943;48.012;10.968;2023-04-30T04:54:55;9.50;99.90
5834;DHT22;2943;48.012;10.968;2023-04-30T04:57:21;9.50;99.90
5834;DHT22;2943;48.012;10.968;2023-04-30T04:59:48;9.50;99.90
5834;DHT22;2943;48.012;10.968;2023-04-30T05:02:15;9.50;99.90
5834;DHT22;2943;48.012;10.968;2023-04-30T05:04:42;9.50;99.90
5834;DHT22;2943;48.012;10.968;2023-04-30T05:07:08;9.50;99.90
5834;DHT22;2943;48.012;10.968;2023-04-30T05:09:37;9.50;99.90
5834;DHT22;2943;48.012;10.968;2023-04-30T05:12:04;9.60;99.90
5834;DHT22;2943;48.012;10.968;2023-04-30T05:14:31;9.60;99.90
5834;DHT22;2943;48.012;10.968;2023-04-30T05:16:58;9.70;99.90
5834;DHT22;2943;48.012;10.968;2023-04-30T05:19:25;9.70;99.90
5834;DHT22;2943;48.012;10.968;2023-04-30T05:21:52;9.70;99.90
5834;DHT22;2943;48.012;10.968;2023-04-30T05:24:18;9.70;99.90
5834;DHT22;2943;48.012;10.968;2023-04-30T05:26:47;9.70;99.90
5834;DHT22;2943;48.012;10.968;2023-04-30T05:29:13;9.70;99.90
5834;DHT22;2943;48.012;10.968;2023-04-30T05:31:40;9.70;99.90
5834;DHT22;2943;48.012;10.968;2023-04-30T05:34:07;9.70;99.90
5834;DHT22;2943;48.012;10.968;2023-04-30T05:36:34;9.70;99.90
5834;DHT22;2943;48.012;10.968;2023-04-30T05:39:00;9.70;99.90
5834;DHT22;2943;48.012;10.968;2023-04-30T05:41:27;9.70;99.90
5834;DHT22;2943;48.012;10.968;2023-04-30T05:43:55;9.70;99.90
5834;DHT22;2943;48.012;10.968;2023-04-30T05:46:22;9.70;99.90
5834;DHT22;2943;48.012;10.968;2023-04-30T05:48:49;9.80;99.90
5834;DHT22;2943;48.012;10.968;2023-04-30T05:51:16;9.70;99.90
5834;DHT22;2943;48.012;10.968;2023-04-30T05:53:42;9.70;99.90
5834;DHT22;2943;48.012;10.968;2023-04-30T05:56:09;9.70;99.90
5834;DHT22;2943;48.012;10.968;2023-04-30T05:58:37;9.70;99.90
5834;DHT22;2943;48.012;10.968;2023-04-30T06:01:05;9.70;99.90
5834;DHT22;2943;48.012;10.968;2023-04-30T06:03:35;9.70;99.90
5834;DHT22;2943;48.012;10.968;2023-04-30T06:06:02;9.70;99.90
5834;DHT22;2943;48.012;10.968;2023-04-30T06:08:29;9.70;99.90
5834;DHT22;2943;48.012;10.968;2023-04-30T06:10:56;9.80;99.90
5834;DHT22;2943;48.012;10.968;2023-04-30T06:13:23;9.80;99.90
5834;DHT22;2943;48.012;10.968;2023-04-30T06:15:50;9.90;99.90
5834;DHT22;2943;48.012;10.968;2023-04-30T06:18:18;9.90;99.90
5834;DHT22;2943;48.012;10.968;2023-04-30T06:20:45;9.90;99.90
5834;DHT22;2943;48.012;10.968;2023-04-30T06:23:12;10.00;99.90
5834;DHT22;2943;48.012;10.968;2023-04-30T06:25:39;10.00;99.90
5834;DHT22;2943;48.012;10.968;2023-04-30T06:28:05;9.80;99.90
5834;DHT22;2943;48.012;10.968;2023-04-30T06:30:35;9.90;99.90
5834;DHT22;2943;48.012;10.968;2023-04-30T06:33:02;9.90;99.90
5834;DHT22;2943;48.012;10.968;2023-04-30T06:35:30;9.90;99.90
5834;DHT22;2943;48.012;10.968;2023-04-30T06:37:57;10.00;99.90
5834;DHT22;2943;48.012;10.968;2023-04-30T06:40:23;10.00;99.90
5834;DHT22;2943;48.012;10.968;2023-04-30T06:42:50;10.10;99.90
5834;DHT22;2943;48.012;10.968;2023-04-30T06:45:19;10.20;99.90
5834;DHT22;2943;48.012;10.968;2023-04-30T06:47:45;10.40;99.90
5834;DHT22;2943;48.012;10.968;2023-04-30T06:50:12;10.60;99.90
5834;DHT22;2943;48.012;10.968;2023-04-30T06:52:41;10.80;99.90
5834;DHT22;2943;48.012;10.968;2023-04-30T06:55:09;11.00;99.90
5834;DHT22;2943;48.012;10.968;2023-04-30T06:57:38;11.20;99.90
5834;DHT22;2943;48.012;10.968;2023-04-30T07:00:06;11.30;99.90
5834;DHT22;2943;48.012;10.968;2023-04-30T07:02:34;11.40;99.90
5834;DHT22;2943;48.012;10.968;2023-04-30T07:05:01;11.50;99.90
5834;DHT22;2943;48.012;10.968;2023-04-30T07:07:28;11.60;99.90
5834;DHT22;2943;48.012;10.968;2023-04-30T07:09:57;11.60;99.90
5834;DHT22;2943;48.012;10.968;2023-04-30T07:12:24;11.60;99.90
5834;DHT22;2943;48.012;10.968;2023-04-30T07:14:51;11.60;99.90
5834;DHT22;2943;48.012;10.968;2023-04-30T07:17:20;11.60;99.90
5834;DHT22;2943;48.012;10.968;2023-04-30T07:19:47;11.60;99.90
5834;DHT22;2943;48.012;10.968;2023-04-30T07:22:14;11.60;99.90
5834;DHT22;2943;48.012;10.968;2023-04-30T07:24:41;11.60;99.90
5834;DHT22;2943;48.012;10.968;2023-04-30T07:27:09;11.60;99.90
5834;DHT22;2943;48.012;10.968;2023-04-30T07:29:36;11.60;99.90
5834;DHT22;2943;48.012;10.968;2023-04-30T07:32:03;11.60;99.90
5834;DHT22;2943;48.012;10.968;2023-04-30T07:34:30;11.60;99.90
5834;DHT22;2943;48.012;10.968;2023-04-30T07:36:57;11.60;99.90
5834;DHT22;2943;48.012;10.968;2023-04-30T07:39:23;11.60;99.90
5834;DHT22;2943;48.012;10.968;2023-04-30T07:41:50;11.60;99.90
5834;DHT22;2943;48.012;10.968;2023-04-30T07:44:18;11.60;99.90
5834;DHT22;2943;48.012;10.968;2023-04-30T07:46:46;11.60;99.90
5834;DHT22;2943;48.012;10.968;2023-04-30T07:49:13;11.70;99.90
5834;DHT22;2943;48.012;10.968;2023-04-30T07:51:40;11.70;99.90
5834;DHT22;2943;48.012;10.968;2023-04-30T07:54:07;11.80;99.90
5834;DHT22;2943;48.012;10.968;2023-04-30T07:56:34;11.80;99.90
5834;DHT22;2943;48.012;10.968;2023-04-30T07:59:01;11.90;99.90
5834;DHT22;2943;48.012;10.968;2023-04-30T08:01:29;11.90;99.90
5834;DHT22;2943;48.012;10.968;2023-04-30T08:03:56;11.90;99.90
5834;DHT22;2943;48.012;10.968;2023-04-30T08:06:24;12.00;99.90
5834;DHT22;2943;48.012;10.968;2023-04-30T08:08:53;12.00;99.90
5834;DHT22;2943;48.012;10.968;2023-04-30T08:11:20;12.00;99.90
5834;DHT22;2943;48.012;10.968;2023-04-30T08:13:47;12.10;99.90
5834;DHT22;2943;48.012;10.968;2023-04-30T08:16:13;12.10;99.90
5834;DHT22;2943;48.012;10.968;2023-04-30T08:18:41;12.20;99.90
5834;DHT22;2943;48.012;10.968;2023-04-30T08:21:13;12.20;99.90
5834;DHT22;2943;48.012;10.968;2023-04-30T08:23:40;12.20;99.90
5834;DHT22;2943;48.012;10.968;2023-04-30T08:26:07;12.20;99.90
5834;DHT22;2943;48.012;10.968;2023-04-30T08:28:34;12.20;99.90
5834;DHT22;2943;48.012;10.968;2023-04-30T08:31:01;12.30;99.90
5834;DHT22;2943;48.012;10.968;2023-04-30T08:33:28;12.40;99.90
5834;DHT22;2943;48.012;10.968;2023-04-30T08:35:56;12.50;99.90
5834;DHT22;2943;48.012;10.968;2023-04-30T08:38:24;12.60;99.90
5834;DHT22;2943;48.012;10.968;2023-04-30T08:40:56;12.70;99.90
5834;DHT22;2943;48.012;10.968;2023-04-30T08:43:30;12.70;99.90
5834;DHT22;2943;48.012;10.968;2023-04-30T08:46:00;12.80;99.90
5834;DHT22;2943;48.012;10.968;2023-04-30T08:48:27;12.80;99.90
5834;DHT22;2943;48.012;10.968;2023-04-30T08:50:58;12.90;99.90
5834;DHT22;2943;48.012;10.968;2023-04-30T08:53:25;13.10;99.90
5834;DHT22;2943;48.012;10.968;2023-04-30T08:55:52;13.20;99.90
5834;DHT22;2943;48.012;10.968;2023-04-30T08:58:19;13.20;99.90
5834;DHT22;2943;48.012;10.968;2023-04-30T09:00:46;13.20;99.90
5834;DHT22;2943;48.012;10.968;2023-04-30T09:03:12;13.40;99.90
5834;DHT22;2943;48.012;10.968;2023-04-30T09:05:39;13.50;99.90
5834;DHT22;2943;48.012;10.968;2023-04-30T09:08:08;13.70;99.90
5834;DHT22;2943;48.012;10.968;2023-04-30T09:10:35;13.90;99.90
5834;DHT22;2943;48.012;10.968;2023-04-30T09:13:03;13.90;99.90
5834;DHT22;2943;48.012;10.968;2023-04-30T09:15:31;14.00;99.90
5834;DHT22;2943;48.012;10.968;2023-04-30T09:18:06;14.00;99.90
5834;DHT22;2943;48.012;10.968;2023-04-30T09:20:33;14.20;99.90
5834;DHT22;2943;48.012;10.968;2023-04-30T09:23:09;14.30;99.90
5834;DHT22;2943;48.012;10.968;2023-04-30T09:25:39;14.30;99.90
5834;DHT22;2943;48.012;10.968;2023-04-30T09:28:08;14.40;99.90
5834;DHT22;2943;48.012;10.968;2023-04-30T09:30:35;14.50;99.90
5834;DHT22;2943;48.012;10.968;2023-04-30T09:33:02;14.50;99.90
5834;DHT22;2943;48.012;10.968;2023-04-30T09:35:29;14.50;99.90
5834;DHT22;2943;48.012;10.968;2023-04-30T09:37:58;14.60;99.90
5834;DHT22;2943;48.012;10.968;2023-04-30T09:40:34;14.60;99.90
5834;DHT22;2943;48.012;10.968;2023-04-30T09:43:01;14.70;99.90
5834;DHT22;2943;48.012;10.968;2023-04-30T09:45:38;14.70;99.90
5834;DHT22;2943;48.012;10.968;2023-04-30T09:48:08;14.70;99.90
5834;DHT22;2943;48.012;10.968;2023-04-30T09:50:39;14.60;99.90
5834;DHT22;2943;48.012;10.968;2023-04-30T09:53:06;14.60;99.90
5834;DHT22;2943;48.012;10.968;2023-04-30T09:55:36;14.60;99.90
5834;DHT22;2943;48.012;10.968;2023-04-30T09:58:04;14.70;99.90
5834;DHT22;2943;48.012;10.968;2023-04-30T10:00:33;14.70;99.90
5834;DHT22;2943;48.012;10.968;2023-04-30T10:03:04;14.80;99.90
5834;DHT22;2943;48.012;10.968;2023-04-30T10:05:34;14.90;99.90
5834;DHT22;2943;48.012;10.968;2023-04-30T10:08:02;15.00;99.90
5834;DHT22;2943;48.012;10.968;2023-04-30T10:10:30;15.10;99.90
5834;DHT22;2943;48.012;10.968;2023-04-30T10:13:02;15.10;99.90
5834;DHT22;2943;48.012;10.968;2023-04-30T10:15:34;15.10;99.90
5834;DHT22;2943;48.012;10.968;2023-04-30T10:18:05;15.10;99.90
5834;DHT22;2943;48.012;10.968;2023-04-30T10:20:34;15.20;99.90
5834;DHT22;2943;48.012;10.968;2023-04-30T10:23:02;15.10;99.90
5834;DHT22;2943;48.012;10.968;2023-04-30T10:25:29;15.10;99.90
5834;DHT22;2943;48.012;10.968;2023-04-30T10:27:56;15.10;99.90
5834;DHT22;2943;48.012;10.968;2023-04-30T10:30:25;15.20;99.90
5834;DHT22;2943;48.012;10.968;2023-04-30T10:32:58;15.30;99.90
5834;DHT22;2943;48.012;10.968;2023-04-30T10:35:34;15.40;99.90
5834;DHT22;2943;48.012;10.968;2023-04-30T10:38:11;15.50;99.90
5834;DHT22;2943;48.012;10.968;2023-04-30T10:40:44;15.70;99.90
5834;DHT22;2943;48.012;10.968;2023-04-30T10:43:12;15.80;99.90
5834;DHT22;2943;48.012;10.968;2023-04-30T10:45:42;15.80;99.90
5834;DHT22;2943;48.012;10.968;2023-04-30T10:48:09;15.80;99.90
5834;DHT22;2943;48.012;10.968;2023-04-30T10:50:40;15.80;99.90
5834;DHT22;2943;48.012;10.968;2023-04-30T10:53:11;15.80;99.90
5834;DHT22;2943;48.012;10.968;2023-04-30T10:55:45;15.80;99.90
5834;DHT22;2943;48.012;10.968;2023-04-30T10:58:29;15.90;99.90
5834;DHT22;2943;48.012;10.968;2023-04-30T11:01:01;15.80;99.90
5834;DHT22;2943;48.012;10.968;2023-04-30T11:03:30;15.80;99.90
5834;DHT22;2943;48.012;10.968;2023-04-30T11:05:58;15.80;99.90
5834;DHT22;2943;48.012;10.968;2023-04-30T11:08:32;15.90;99.90
5834;DHT22;2943;48.012;10.968;2023-04-30T11:10:59;15.80;99.90
5834;DHT22;2943;48.012;10.968;2023-04-30T11:13:27;15.80;99.90
5834;DHT22;2943;48.012;10.968;2023-04-30T11:16:02;15.80;99.90
5834;DHT22;2943;48.012;10.968;2023-04-30T11:18:30;15.90;99.90
5834;DHT22;2943;48.012;10.968;2023-04-30T11:20:56;15.80;99.90
5834;DHT22;2943;48.012;10.968;2023-04-30T11:23:25;15.80;99.90
5834;DHT22;2943;48.012;10.968;2023-04-30T11:25:54;15.80;99.90
5834;DHT22;2943;48.012;10.968;2023-04-30T11:28:24;15.80;99.90
5834;DHT22;2943;48.012;10.968;2023-04-30T11:30:52;15.90;99.90
5834;DHT22;2943;48.012;10.968;2023-04-30T11:33:21;15.90;99.90
5834;DHT22;2943;48.012;10.968;2023-04-30T11:35:48;16.00;99.90
5834;DHT22;2943;48.012;10.968;2023-04-30T11:38:19;16.10;99.90
5834;DHT22;2943;48.012;10.968;2023-04-30T11:40:46;16.10;99.90
5834;DHT22;2943;48.012;10.968;2023-04-30T11:43:21;16.10;99.90
5834;DHT22;2943;48.012;10.968;2023-04-30T11:45:59;16.00;99.90
5834;DHT22;2943;48.012;10.968;2023-04-30T11:48:31;15.90;99.90
5834;DHT22;2943;48.012;10.968;2023-04-30T11:50:58;16.00;99.90
5834;DHT22;2943;48.012;10.968;2023-04-30T11:53:28;16.10;99.90
5834;DHT22;2943;48.012;10.968;2023-04-30T11:55:55;16.20;99.90
5834;DHT22;2943;48.012;10.968;2023-04-30T11:58:22;16.30;99.90
5834;DHT22;2943;48.012;10.968;2023-04-30T12:00:49;16.50;99.90
5834;DHT22;2943;48.012;10.968;2023-04-30T12:03:17;16.60;99.90
5834;DHT22;2943;48.012;10.968;2023-04-30T12:05:46;16.70;99.90
5834;DHT22;2943;48.012;10.968;2023-04-30T12:08:13;16.80;99.90
5834;DHT22;2943;48.012;10.968;2023-04-30T12:10:40;16.70;99.90
5834;DHT22;2943;48.012;10.968;2023-04-30T12:13:06;16.60;99.90
5834;DHT22;2943;48.012;10.968;2023-04-30T12:15:33;16.60;99.90
5834;DHT22;2943;48.012;10.968;2023-04-30T12:18:10;16.70;99.90
5834;DHT22;2943;48.012;10.968;2023-04-30T12:20:37;16.80;99.90
5834;DHT22;2943;48.012;10.968;2023-04-30T12:23:07;16.90;99.90
5834;DHT22;2943;48.012;10.968;2023-04-30T12:25:39;17.00;99.90
5834;DHT22;2943;48.012;10.968;2023-04-30T12:28:06;17.10;99.90
5834;DHT22;2943;48.012;10.968;2023-04-30T12:30:33;17.20;99.90
5834;DHT22;2943;48.012;10.968;2023-04-30T12:33:00;17.20;99.90
5834;DHT22;2943;48.012;10.968;2023-04-30T12:35:28;17.20;99.90
5834;DHT22;2943;48.012;10.968;2023-04-30T12:38:02;17.20;99.90
5834;DHT22;2943;48.012;10.968;2023-04-30T12:40:30;17.20;99.90
5834;DHT22;2943;48.012;10.968;2023-04-30T12:43:01;17.10;99.90
5834;DHT22;2943;48.012;10.968;2023-04-30T12:45:44;17.10;99.90
5834;DHT22;2943;48.012;10.968;2023-04-30T12:48:11;17.10;99.90
5834;DHT22;2943;48.012;10.968;2023-04-30T12:50:39;17.20;99.90
5834;DHT22;2943;48.012;10.968;2023-04-30T12:53:06;17.20;99.90
5834;DHT22;2943;48.012;10.968;2023-04-30T12:55:34;17.20;99.90
5834;DHT22;2943;48.012;10.968;2023-04-30T12:58:08;17.30;99.90
5834;DHT22;2943;48.012;10.968;2023-04-30T13:00:46;17.40;99.90
5834;DHT22;2943;48.012;10.968;2023-04-30T13:03:13;17.50;99.90
5834;DHT22;2943;48.012;10.968;2023-04-30T13:05:41;17.60;99.90
5834;DHT22;2943;48.012;10.968;2023-04-30T13:08:08;17.70;99.90
5834;DHT22;2943;48.012;10.968;2023-04-30T13:10:36;17.70;99.90
5834;DHT22;2943;48.012;10.968;2023-04-30T13:13:03;17.80;99.90
5834;DHT22;2943;48.012;10.968;2023-04-30T13:15:30;17.70;99.90
5834;DHT22;2943;48.012;10.968;2023-04-30T13:17:57;17.80;99.90
5834;DHT22;2943;48.012;10.968;2023-04-30T13:20:24;17.80;99.90
5834;DHT22;2943;48.012;10.968;2023-04-30T13:22:52;17.80;99.90
5834;DHT22;2943;48.012;10.968;2023-04-30T13:25:19;17.80;99.90
5834;DHT22;2943;48.012;10.968;2023-04-30T13:27:47;17.80;99.90
5834;DHT22;2943;48.012;10.968;2023-04-30T13:30:14;17.90;99.90
5834;DHT22;2943;48.012;10.968;2023-04-30T13:32:41;17.80;99.90
5834;DHT22;2943;48.012;10.968;2023-04-30T13:35:09;17.90;99.90
5834;DHT22;2943;48.012;10.968;2023-04-30T13:37:37;17.90;99.90
5834;DHT22;2943;48.012;10.968;2023-04-30T13:40:05;17.80;99.90
5834;DHT22;2943;48.012;10.968;2023-04-30T13:42:32;17.60;99.90
5834;DHT22;2943;48.012;10.968;2023-04-30T13:45:00;17.50;99.90
5834;DHT22;2943;48.012;10.968;2023-04-30T13:47:27;17.40;99.90
5834;DHT22;2943;48.012;10.968;2023-04-30T13:49:54;17.40;99.90
5834;DHT22;2943;48.012;10.968;2023-04-30T13:52:21;17.40;99.90
5834;DHT22;2943;48.012;10.968;2023-04-30T13:54:47;17.20;99.90
5834;DHT22;2943;48.012;10.968;2023-04-30T13:57:14;17.20;99.90
5834;DHT22;2943;48.012;10.968;2023-04-30T13:59:41;17.10;99.90
5834;DHT22;2943;48.012;10.968;2023-04-30T14:02:09;17.10;99.90
5834;DHT22;2943;48.012;10.968;2023-04-30T14:04:36;17.10;99.90
5834;DHT22;2943;48.012;10.968;2023-04-30T14:07:03;17.00;99.90
5834;DHT22;2943;48.012;10.968;2023-04-30T14:09:30;17.10;99.90
5834;DHT22;2943;48.012;10.968;2023-04-30T14:11:57;17.00;99.90
5834;DHT22;2943;48.012;10.968;2023-04-30T14:14:24;16.90;99.90
5834;DHT22;2943;48.012;10.968;2023-04-30T14:16:51;16.90;99.90
5834;DHT22;2943;48.012;10.968;2023-04-30T14:19:20;16.90;99.90
5834;DHT22;2943;48.012;10.968;2023-04-30T14:21:47;16.80;99.90
5834;DHT22;2943;48.012;10.968;2023-04-30T14:24:14;16.80;99.90
5834;DHT22;2943;48.012;10.968;2023-04-30T14:26:42;16.80;99.90
5834;DHT22;2943;48.012;10.968;2023-04-30T14:29:10;16.80;99.90
5834;DHT22;2943;48.012;10.968;2023-04-30T14:31:37;16.80;99.90
5834;DHT22;2943;48.012;10.968;2023-04-30T14:34:03;16.80;99.90
5834;DHT22;2943;48.012;10.968;2023-04-30T14:36:33;16.70;99.90
5834;DHT22;2943;48.012;10.968;2023-04-30T14:39:00;16.60;99.90
5834;DHT22;2943;48.012;10.968;2023-04-30T14:41:33;16.60;99.90
5834;DHT22;2943;48.012;10.968;2023-04-30T14:43:59;16.60;99.90
5834;DHT22;2943;48.012;10.968;2023-04-30T14:46:26;16.70;99.90
5834;DHT22;2943;48.012;10.968;2023-04-30T14:48:53;16.70;99.90
5834;DHT22;2943;48.012;10.968;2023-04-30T14:51:20;16.70;99.90
5834;DHT22;2943;48.012;10.968;2023-04-30T14:53:48;16.70;99.90
5834;DHT22;2943;48.012;10.968;2023-04-30T14:56:15;16.80;99.90
5834;DHT22;2943;48.012;10.968;2023-04-30T14:58:42;16.90;99.90
5834;DHT22;2943;48.012;10.968;2023-04-30T15:01:08;16.90;99.90
5834;DHT22;2943;48.012;10.968;2023-04-30T15:03:35;16.80;99.90
5834;DHT22;2943;48.012;10.968;2023-04-30T15:06:02;16.80;99.90
5834;DHT22;2943;48.012;10.968;2023-04-30T15:08:29;16.80;99.90
5834;DHT22;2943;48.012;10.968;2023-04-30T15:10:57;16.80;99.90
5834;DHT22;2943;48.012;10.968;2023-04-30T15:13:25;16.80;99.90
5834;DHT22;2943;48.012;10.968;2023-04-30T15:15:52;16.80;99.90
5834;DHT22;2943;48.012;10.968;2023-04-30T15:18:18;16.70;99.90
5834;DHT22;2943;48.012;10.968;2023-04-30T15:20:45;16.60;99.90
5834;DHT22;2943;48.012;10.968;2023-04-30T15:23:12;16.60;99.90
5834;DHT22;2943;48.012;10.968;2023-04-30T15:25:39;16.60;99.90
5834;DHT22;2943;48.012;10.968;2023-04-30T15:28:08;16.60;99.90
5834;DHT22;2943;48.012;10.968;2023-04-30T15:30:35;16.80;99.90
5834;DHT22;2943;48.012;10.968;2023-04-30T15:33:03;16.90;99.90
5834;DHT22;2943;48.012;10.968;2023-04-30T15:35:29;17.00;99.90
5834;DHT22;2943;48.012;10.968;2023-04-30T15:37:56;17.20;99.90
5834;DHT22;2943;48.012;10.968;2023-04-30T15:40:23;17.30;99.90
5834;DHT22;2943;48.012;10.968;2023-04-30T15:42:50;17.50;99.90
5834;DHT22;2943;48.012;10.968;2023-04-30T15:45:19;17.60;99.90
5834;DHT22;2943;48.012;10.968;2023-04-30T15:47:45;17.90;99.90
5834;DHT22;2943;48.012;10.968;2023-04-30T15:50:12;18.10;99.90
5834;DHT22;2943;48.012;10.968;2023-04-30T15:52:39;18.20;99.90
5834;DHT22;2943;48.012;10.968;2023-04-30T15:55:07;18.40;99.90